Stuyvesant — WNFX — position and weather

sailwx.info

Track history (hours):
 
Tides and Currents Weather Stations Pressure Air Temp Water Temp Dewpoint Dewpoint Depression Visibility Wind Speed Wind Dir Waves Ship Positions

Stuyvesant

Owner: THE DUTRA GROUP, SAN RAFAEL, CA. More information available from US FCC via Universal Licensing System and Coast Guard Vessel Documentation Center.

Last reported at 2018-May-23 20:30 UTC. Time now 2018-May-23 20:37 UTC.
Position N 29°35' W 093°17'.

Length 122 m; draft 10 m.

Type: Dredging. MMSI: 368098000.

Date/timePositionNaut miles runAvg speedWind from/ knotsBaromVisibWave heightAir tempDewpointWater temp
2018-May-23 20:30N 29°35' W 093°17'1 2.0
2018-May-23 19:54N 29°36' W 093°18'3 7.5
2018-May-23 19:30N 29°39' W 093°20'3 6.7
2018-May-23 19:00N 29°42' W 093°20'1 2.4
2018-May-23 18:29N 29°43' W 093°20'1 2.0
2018-May-23 18:00N 29°44' W 093°20'1 1.4
2018-May-23 17:30N 29°44' W 093°20'1 1.9
2018-May-23 16:55N 29°43' W 093°20'1 1.9
2018-May-23 16:30N 29°42' W 093°20'3 1.7
2018-May-23 14:59N 29°45' W 093°20'1 1.7
2018-May-23 14:29N 29°44' W 093°20'1 1.8
2018-May-23 14:00N 29°43' W 093°20'1 1.8
2018-May-23 13:29N 29°42' W 093°20'2 1.8
2018-May-23 12:15N 29°44' W 093°20'4 1.6
2018-May-23 10:00N 29°41' W 093°20'4 0.7
2018-May-23 04:04N 29°45' W 093°20'1 2.0
2018-May-23 03:48N 29°44' W 093°20'1 1.8
2018-May-23 03:22N 29°43' W 093°20'1 1.8
2018-May-23 02:32N 29°42' W 093°20'0 1.3
2018-May-23 02:24N 29°42' W 093°20'1 1.6
2018-May-23 01:59N 29°43' W 093°20'2 1.8
2018-May-23 00:58N 29°44' W 093°20'0 1.0
2018-May-23 00:30N 29°44' W 093°20'2 1.7
2018-May-22 23:20N 29°42' W 093°20'1 1.9
2018-May-22 22:59N 29°41' W 093°20'1 2.2
2018-May-22 22:30N 29°40' W 093°20'1 2.0
2018-May-22 21:49N 29°39' W 093°20'1 1.8
2018-May-22 21:04N 29°37' W 093°19'0 2.8
2018-May-22 20:58N 29°37' W 093°19'0 0.4
2018-May-22 19:51N 29°37' W 093°19'7 4.0
2018-May-22 18:04N 29°44' W 093°20'1 2.2
2018-May-22 17:45N 29°45' W 093°20'1 2.3
2018-May-22 17:24N 29°44' W 093°20'2 2.3
2018-May-22 16:45N 29°42' W 093°20'2 1.3
2018-May-22 14:59N 29°45' W 093°20'1 2.2
2018-May-22 14:30N 29°43' W 093°20'1 2.3
2018-May-22 14:00N 29°42' W 093°20'1 0.9
2018-May-22 13:03N 29°43' W 093°20'0 1.8
2018-May-22 12:59N 29°43' W 093°20'1 1.9
2018-May-22 12:30N 29°44' W 093°20'0 0.0
2018-May-22 12:00N 29°44' W 093°20'1 2.0
2018-May-22 11:26N 29°43' W 093°20'1 1.9
2018-May-22 10:42N 29°42' W 093°20'6 3.1
2018-May-22 08:39N 29°36' W 093°17'9 4.1
2018-May-22 06:23N 29°44' W 093°20'1 1.4
2018-May-22 06:00N 29°44' W 093°20'1 1.7
2018-May-22 05:24N 29°43' W 093°20'1 1.9
2018-May-22 04:54N 29°42' W 093°20'1 1.4
2018-May-22 04:11N 29°43' W 093°20'1 2.0
2018-May-22 03:52N 29°44' W 093°20'1 2.0
2018-May-22 03:25N 29°44' W 093°20'1 1.5
2018-May-22 03:00N 29°44' W 093°20'1 1.6
2018-May-22 02:30N 29°43' W 093°20'1 1.9
2018-May-22 01:59N 29°42' W 093°20'2 1.4
2018-May-22 00:25N 29°44' W 093°20'0 1.1
2018-May-22 00:00N 29°44' W 093°20'6 2.0
2018-May-21 20:48N 29°38' W 093°19'7 1.8
2018-May-21 17:17N 29°44' W 093°20'1 1.8
2018-May-21 16:59N 29°43' W 093°20'1 2.0
2018-May-21 16:25N 29°42' W 093°20'2 1.3
2018-May-21 14:44N 29°45' W 093°20'1 2.3
2018-May-21 14:29N 29°44' W 093°20'2 2.2
2018-May-21 13:38N 29°42' W 093°20'0 1.8
2018-May-21 13:30N 29°42' W 093°20'3 1.7
2018-May-21 11:53N 29°45' W 093°20'1 1.9
2018-May-21 11:17N 29°43' W 093°20'1 2.0
2018-May-21 10:44N 29°42' W 093°20'5 2.2
2018-May-21 08:19N 29°37' W 093°19'7 1.7
2018-May-21 03:55N 29°44' W 093°20'0 1.0
2018-May-21 03:27N 29°44' W 093°20'0 0.0
2018-May-21 01:04N 29°44' W 093°20'1 1.9
2018-May-21 00:44N 29°44' W 093°20'0 1.2
2018-May-21 00:30N 29°44' W 093°20'1 1.8
2018-May-20 23:58N 29°43' W 093°20'1 1.8
2018-May-20 23:30N 29°42' W 093°20'5 2.0
2018-May-20 20:59N 29°37' W 093°19'7 2.0
2018-May-20 17:23N 29°45' W 093°20'1 1.9
2018-May-20 16:57N 29°44' W 093°20'1 2.1
2018-May-20 16:30N 29°43' W 093°20'2 0.9
2018-May-20 14:33N 29°45' W 093°20'0 1.2
2018-May-20 14:30N 29°44' W 093°20'2 0.9
2018-May-20 12:42N 29°43' W 093°20'1 2.2
2018-May-20 12:07N 29°44' W 093°20'0 2.2
2018-May-20 11:56N 29°45' W 093°20'1 1.9
2018-May-20 11:28N 29°44' W 093°20'1 2.1
2018-May-20 10:58N 29°43' W 093°20'1 0.3
2018-May-20 05:21N 29°44' W 093°20'0 0.3
2018-May-20 04:47N 29°44' W 093°20'2 1.7
2018-May-20 03:45N 29°42' W 093°20'2 1.2
2018-May-20 01:47N 29°44' W 093°20'1 1.7
2018-May-20 01:26N 29°44' W 093°20'1 1.5
2018-May-20 00:41N 29°43' W 093°20'1 1.5
2018-May-20 00:10N 29°42' W 093°20'1 1.3
2018-May-19 23:28N 29°43' W 093°20'6 2.1
2018-May-19 20:41N 29°37' W 093°19'7 2.0
2018-May-19 16:59N 29°44' W 093°20'1 2.0
2018-May-19 16:30N 29°44' W 093°20'1 0.4
2018-May-19 14:01N 29°44' W 093°20'0 1.2
2018-May-19 14:00N 29°44' W 093°20'1 2.2
2018-May-19 13:21N 29°43' W 093°20'6 1.1
2018-May-19 08:06N 29°37' W 093°19'1 7.9
2018-May-19 08:00N 29°37' W 093°19'1 0.7
2018-May-19 06:59N 29°36' W 093°18'3 4.2
2018-May-19 06:18N 29°39' W 093°19'1 2.3
2018-May-19 05:56N 29°39' W 093°20'3 1.0
2018-May-19 02:25N 29°43' W 093°20'2 0.8
2018-May-19 00:23N 29°45' W 093°20'7 2.2
2018-May-18 21:11N 29°37' W 093°19'1 3.8
2018-May-18 21:01N 29°37' W 093°19'4 0.8
2018-May-18 15:38N 29°41' W 093°20'0 2.4
2018-May-18 15:28N 29°41' W 093°20'0 0.0
2018-May-18 12:31N 29°41' W 093°20'1 3.0
2018-May-18 12:06N 29°42' W 093°20'1 2.3
2018-May-18 11:41N 29°43' W 093°20'1 2.3
2018-May-18 11:14N 29°44' W 093°20'1 2.1
2018-May-18 10:59N 29°44' W 093°20'1 2.3
2018-May-18 10:30N 29°43' W 093°20'1 2.6
2018-May-18 10:00N 29°42' W 093°20'1 2.7
2018-May-18 09:30N 29°41' W 093°20'1 2.8
2018-May-18 09:00N 29°39' W 093°20'1 2.8
2018-May-18 08:30N 29°38' W 093°19'1 2.9
2018-May-18 08:00N 29°37' W 093°19'2 3.0
2018-May-18 07:30N 29°36' W 093°17'2 4.3
2018-May-18 07:00N 29°34' W 093°17'1 1.9
2018-May-18 06:30N 29°35' W 093°17'1 2.3
2018-May-18 06:00N 29°35' W 093°17'1 2.4
2018-May-18 05:30N 29°36' W 093°18'1 2.4
2018-May-18 05:00N 29°37' W 093°19'1 2.5
2018-May-18 04:29N 29°38' W 093°19'1 2.3
2018-May-18 04:00N 29°40' W 093°20'1 2.3
2018-May-18 03:30N 29°41' W 093°20'1 2.1
2018-May-18 03:00N 29°42' W 093°20'1 2.2
2018-May-18 02:30N 29°43' W 093°20'1 2.1
2018-May-18 01:59N 29°44' W 093°20'0 0.4
2018-May-18 01:29N 29°44' W 093°20'1 2.0
2018-May-18 01:00N 29°43' W 093°20'1 1.9
2018-May-18 00:30N 29°42' W 093°20'1 1.9
2018-May-18 00:00N 29°41' W 093°20'1 2.1
2018-May-17 23:30N 29°40' W 093°20'1 2.3
2018-May-17 23:00N 29°39' W 093°20'1 2.3
2018-May-17 22:30N 29°38' W 093°19'1 2.0
2018-May-17 22:00N 29°37' W 093°19'1 1.8
2018-May-17 21:30N 29°36' W 093°18'1 2.0
2018-May-17 21:00N 29°36' W 093°18'1 2.1
2018-May-17 20:30N 29°35' W 093°17'1 2.1
2018-May-17 20:01N 29°34' W 093°16'1 2.3
2018-May-17 19:30N 29°33' W 093°15'0 0.2
2018-May-17 19:00N 29°33' W 093°15'1 2.1
2018-May-17 18:29N 29°34' W 093°16'1 1.9
2018-May-17 18:00N 29°35' W 093°17'0 0.5
2018-May-17 17:30N 29°35' W 093°17'0 0.7
2018-May-17 17:00N 29°35' W 093°17'0 0.7
2018-May-17 16:31N 29°35' W 093°17'1 0.9
2018-May-17 15:58N 29°35' W 093°17'1 2.1
2018-May-17 15:26N 29°36' W 093°18'1 1.9
2018-May-17 15:00N 29°36' W 093°18'2 2.4
2018-May-17 14:12N 29°34' W 093°16'1 2.0
2018-May-17 13:43N 29°33' W 093°16'1 1.9
2018-May-17 13:25N 29°33' W 093°15'1 2.2
2018-May-17 12:58N 29°32' W 093°14'2 1.0
2018-May-17 11:20N 29°33' W 093°16'1 2.1
2018-May-17 11:00N 29°34' W 093°16'0 0.7
2018-May-17 10:30N 29°34' W 093°16'1 2.1
2018-May-17 09:59N 29°33' W 093°15'1 2.6
2018-May-17 09:30N 29°32' W 093°14'0 0.9
2018-May-17 08:59N 29°32' W 093°14'1 2.2
2018-May-17 08:26N 29°32' W 093°15'1 2.3
2018-May-17 08:00N 29°33' W 093°15'1 2.2
2018-May-17 07:26N 29°34' W 093°16'1 1.1
2018-May-17 07:00N 29°34' W 093°17'1 2.0
2018-May-17 06:27N 29°35' W 093°17'1 2.2
2018-May-17 06:00N 29°36' W 093°18'1 1.0
2018-May-17 05:28N 29°36' W 093°18'1 2.3
2018-May-17 05:00N 29°35' W 093°17'1 1.1
2018-May-17 04:29N 29°34' W 093°16'1 2.0
2018-May-17 04:00N 29°35' W 093°17'0 0.3
2018-May-17 03:30N 29°35' W 093°17'1 1.9
2018-May-17 03:00N 29°34' W 093°16'1 2.0
2018-May-17 02:30N 29°34' W 093°16'1 1.8
2018-May-17 02:00N 29°33' W 093°15'1 2.0
2018-May-17 01:30N 29°32' W 093°14'1 1.6
2018-May-17 01:00N 29°32' W 093°14'1 1.8
2018-May-17 00:30N 29°32' W 093°15'1 1.9
2018-May-17 00:00N 29°33' W 093°15'1 2.0
2018-May-16 23:30N 29°34' W 093°16'1 1.0
2018-May-16 23:00N 29°33' W 093°15'1 1.9
2018-May-16 22:30N 29°33' W 093°15'1 1.9
2018-May-16 22:00N 29°32' W 093°14'1 1.7
2018-May-16 21:31N 29°31' W 093°14'1 2.1
2018-May-16 21:00N 29°32' W 093°14'1 1.4
2018-May-16 20:31N 29°33' W 093°15'1 1.6
2018-May-16 20:01N 29°33' W 093°15'1 2.2
2018-May-16 19:30N 29°34' W 093°16'0 0.9
2018-May-16 19:00N 29°34' W 093°16'1 1.9
2018-May-16 18:31N 29°33' W 093°15'1 1.9
2018-May-16 17:56N 29°32' W 093°14'1 1.9
2018-May-16 17:21N 29°31' W 093°14'1 1.3
2018-May-16 16:42N 29°32' W 093°14'2 1.8
2018-May-16 15:35N 29°34' W 093°16'0 0.4
2018-May-16 15:30N 29°34' W 093°16'1 1.1
2018-May-16 15:00N 29°33' W 093°15'1 1.6
2018-May-16 14:30N 29°33' W 093°15'1 2.0
2018-May-16 14:00N 29°32' W 093°14'0 0.6
2018-May-16 13:30N 29°32' W 093°14'1 2.1
2018-May-16 13:00N 29°32' W 093°15'1 2.0
2018-May-16 12:30N 29°33' W 093°15'1 1.9
2018-May-16 12:00N 29°34' W 093°16'1 1.5
2018-May-16 11:30N 29°33' W 093°15'1 1.8
2018-May-16 11:00N 29°33' W 093°15'1 2.1
2018-May-16 10:30N 29°32' W 093°14'0 0.9
2018-May-16 10:00N 29°31' W 093°14'1 2.0
2018-May-16 09:29N 29°32' W 093°15'1 2.0
2018-May-16 09:00N 29°33' W 093°15'1 2.2
2018-May-16 08:30N 29°34' W 093°16'1 1.7
2018-May-16 08:00N 29°33' W 093°15'1 2.3
2018-May-16 07:30N 29°32' W 093°15'0 0.4
2018-May-16 07:00N 29°32' W 093°15'1 2.0
2018-May-16 06:30N 29°33' W 093°15'1 1.8
2018-May-16 06:00N 29°34' W 093°16'1 1.5
2018-May-16 05:30N 29°33' W 093°15'1 1.7
2018-May-16 05:00N 29°33' W 093°15'1 1.8
2018-May-16 04:30N 29°32' W 093°14'1 1.6
2018-May-16 03:59N 29°31' W 093°14'2 2.0
2018-May-16 03:11N 29°33' W 093°15'0 2.0
2018-May-16 02:57N 29°33' W 093°15'1 1.7
2018-May-16 02:30N 29°34' W 093°16'0 0.4
2018-May-16 02:00N 29°34' W 093°16'1 2.0
2018-May-16 01:30N 29°33' W 093°15'1 2.0
2018-May-16 01:00N 29°32' W 093°14'1 2.2
2018-May-16 00:30N 29°31' W 093°14'1 1.6
2018-May-16 00:00N 29°32' W 093°14'1 2.3
2018-May-15 23:30N 29°33' W 093°15'1 2.2
2018-May-15 23:00N 29°34' W 093°16'0 0.2
2018-May-15 22:30N 29°34' W 093°16'1 1.9
2018-May-15 22:01N 29°33' W 093°15'0 0.7
2018-May-15 21:30N 29°33' W 093°15'1 2.5
2018-May-15 20:55N 29°34' W 093°16'1 2.5
2018-May-15 20:30N 29°35' W 093°17'0 0.7
2018-May-15 20:00N 29°35' W 093°17'2 2.2
2018-May-15 18:55N 29°37' W 093°19'2 2.0
2018-May-15 17:49N 29°39' W 093°20'1 1.7
2018-May-15 17:24N 29°39' W 093°19'1 2.1
2018-May-15 16:59N 29°38' W 093°19'1 1.6
2018-May-15 16:25N 29°37' W 093°19'1 1.6
2018-May-15 15:58N 29°36' W 093°18'1 1.9
2018-May-15 15:30N 29°36' W 093°18'1 2.3
2018-May-15 15:00N 29°35' W 093°17'1 2.1
2018-May-15 14:30N 29°34' W 093°16'0 0.9
2018-May-15 14:00N 29°34' W 093°16'0 0.3
2018-May-15 13:30N 29°34' W 093°16'1 1.6
2018-May-15 13:00N 29°33' W 093°15'1 1.8
2018-May-15 12:30N 29°32' W 093°15'1 2.2
2018-May-15 12:00N 29°31' W 093°14'0 0.8
2018-May-15 11:29N 29°32' W 093°14'1 1.9
2018-May-15 10:58N 29°33' W 093°15'1 2.1
2018-May-15 10:30N 29°33' W 093°15'1 1.3
2018-May-15 10:00N 29°34' W 093°16'1 2.0
2018-May-15 09:30N 29°33' W 093°15'1 1.8
2018-May-15 09:00N 29°32' W 093°15'1 2.0
2018-May-15 08:30N 29°33' W 093°15'1 2.2
2018-May-15 08:00N 29°34' W 093°16'1 1.8
2018-May-15 07:29N 29°33' W 093°15'0 0.9
2018-May-15 07:00N 29°33' W 093°16'1 1.5
2018-May-15 06:30N 29°34' W 093°16'0 0.2
2018-May-15 06:00N 29°34' W 093°16'1 1.9
2018-May-15 05:30N 29°33' W 093°15'1 1.9
2018-May-15 05:00N 29°32' W 093°14'1 2.0
2018-May-15 04:30N 29°31' W 093°14'1 1.1
2018-May-15 04:00N 29°32' W 093°14'1 1.7
2018-May-15 03:30N 29°32' W 093°15'1 2.1
2018-May-15 03:00N 29°33' W 093°16'1 1.4
2018-May-15 02:30N 29°34' W 093°16'1 2.0
2018-May-15 02:00N 29°33' W 093°15'1 1.7
2018-May-15 01:30N 29°32' W 093°15'1 2.1
2018-May-15 01:00N 29°32' W 093°14'0 0.4
2018-May-15 00:27N 29°32' W 093°14'1 2.1
2018-May-15 00:00N 29°33' W 093°15'1 1.9
2018-May-14 23:30N 29°33' W 093°15'1 1.9
2018-May-14 22:57N 29°34' W 093°16'1 1.5
2018-May-14 22:30N 29°34' W 093°16'0 0.3
2018-May-14 21:06N 29°33' W 093°15'0 1.3
2018-May-14 21:00N 29°33' W 093°15'1 1.8
2018-May-14 20:27N 29°32' W 093°15'0 1.0
2018-May-14 19:58N 29°33' W 093°15'0 0.7
2018-May-14 19:30N 29°33' W 093°16'1 2.0
2018-May-14 19:00N 29°32' W 093°15'1 1.7
2018-May-14 18:30N 29°32' W 093°14'2 1.2
2018-May-14 16:56N 29°33' W 093°15'1 1.9
2018-May-14 16:20N 29°34' W 093°16'0 1.3
2018-May-14 16:00N 29°34' W 093°16'1 1.9
2018-May-14 15:30N 29°33' W 093°15'1 2.0
2018-May-14 15:01N 29°32' W 093°14'1 1.8
2018-May-14 14:30N 29°31' W 093°14'1 1.4
2018-May-14 13:58N 29°32' W 093°14'1 2.1
2018-May-14 13:30N 29°33' W 093°15'1 1.7
2018-May-14 13:00N 29°33' W 093°16'0 1.0
2018-May-14 12:30N 29°34' W 093°16'1 1.8
2018-May-14 12:00N 29°33' W 093°15'1 1.6
2018-May-14 11:30N 29°32' W 093°15'0 0.3
2018-May-14 10:12N 29°32' W 093°14'1 2.1
2018-May-14 09:44N 29°33' W 093°15'0 1.9
2018-May-14 09:30N 29°33' W 093°15'1 1.3
2018-May-14 08:57N 29°34' W 093°16'1 1.7
2018-May-14 08:30N 29°33' W 093°15'1 2.2
2018-May-14 08:00N 29°32' W 093°15'1 2.3
2018-May-14 07:30N 29°31' W 093°14'0 0.7
2018-May-14 06:59N 29°32' W 093°14'3 1.6
2018-May-14 05:20N 29°34' W 093°16'1 2.2
2018-May-14 04:56N 29°33' W 093°15'1 0.4
2018-May-14 02:02N 29°34' W 093°16'0 1.6
2018-May-14 01:57N 29°34' W 093°16'1 1.5
2018-May-14 01:26N 29°33' W 093°15'1 1.7
2018-May-14 00:56N 29°33' W 093°15'2 0.7
2018-May-13 22:24N 29°34' W 093°16'  
Track history (hours):
 
Tides and Currents Weather Stations Pressure Air Temp Water Temp Dewpoint Dewpoint Depression Visibility Wind Speed Wind Dir Waves Ship Positions

Stuyvesant

Owner: THE DUTRA GROUP, SAN RAFAEL, CA. More information available from US FCC via Universal Licensing System and Coast Guard Vessel Documentation Center.

Last reported at 2018-May-23 20:30 UTC. Time now 2018-May-23 20:37 UTC.
Position N 29°35' W 093°17'.

Length 122 m; draft 10 m.

Type: Dredging. MMSI: 368098000.

Date/timePositionNaut miles runAvg speedWind from/ knotsBaromVisibWave heightAir tempDewpointWater temp
2018-May-23 20:30N 29°35' W 093°17'1 2.0
2018-May-23 19:54N 29°36' W 093°18'3 7.5
2018-May-23 19:30N 29°39' W 093°20'3 6.7
2018-May-23 19:00N 29°42' W 093°20'1 2.4
2018-May-23 18:29N 29°43' W 093°20'1 2.0
2018-May-23 18:00N 29°44' W 093°20'1 1.4
2018-May-23 17:30N 29°44' W 093°20'1 1.9
2018-May-23 16:55N 29°43' W 093°20'1 1.9
2018-May-23 16:30N 29°42' W 093°20'3 1.7
2018-May-23 14:59N 29°45' W 093°20'1 1.7
2018-May-23 14:29N 29°44' W 093°20'1 1.8
2018-May-23 14:00N 29°43' W 093°20'1 1.8
2018-May-23 13:29N 29°42' W 093°20'2 1.8
2018-May-23 12:15N 29°44' W 093°20'4 1.6
2018-May-23 10:00N 29°41' W 093°20'4 0.7
2018-May-23 04:04N 29°45' W 093°20'1 2.0
2018-May-23 03:48N 29°44' W 093°20'1 1.8
2018-May-23 03:22N 29°43' W 093°20'1 1.8
2018-May-23 02:32N 29°42' W 093°20'0 1.3
2018-May-23 02:24N 29°42' W 093°20'1 1.6
2018-May-23 01:59N 29°43' W 093°20'2 1.8
2018-May-23 00:58N 29°44' W 093°20'0 1.0
2018-May-23 00:30N 29°44' W 093°20'2 1.7
2018-May-22 23:20N 29°42' W 093°20'1 1.9
2018-May-22 22:59N 29°41' W 093°20'1 2.2
2018-May-22 22:30N 29°40' W 093°20'1 2.0
2018-May-22 21:49N 29°39' W 093°20'1 1.8
2018-May-22 21:04N 29°37' W 093°19'0 2.8
2018-May-22 20:58N 29°37' W 093°19'0 0.4
2018-May-22 19:51N 29°37' W 093°19'7 4.0
2018-May-22 18:04N 29°44' W 093°20'1 2.2
2018-May-22 17:45N 29°45' W 093°20'1 2.3
2018-May-22 17:24N 29°44' W 093°20'2 2.3
2018-May-22 16:45N 29°42' W 093°20'2 1.3
2018-May-22 14:59N 29°45' W 093°20'1 2.2
2018-May-22 14:30N 29°43' W 093°20'1 2.3
2018-May-22 14:00N 29°42' W 093°20'1 0.9
2018-May-22 13:03N 29°43' W 093°20'0 1.8
2018-May-22 12:59N 29°43' W 093°20'1 1.9
2018-May-22 12:30N 29°44' W 093°20'0 0.0
2018-May-22 12:00N 29°44' W 093°20'1 2.0
2018-May-22 11:26N 29°43' W 093°20'1 1.9
2018-May-22 10:42N 29°42' W 093°20'6 3.1
2018-May-22 08:39N 29°36' W 093°17'9 4.1
2018-May-22 06:23N 29°44' W 093°20'1 1.4
2018-May-22 06:00N 29°44' W 093°20'1 1.7
2018-May-22 05:24N 29°43' W 093°20'1 1.9
2018-May-22 04:54N 29°42' W 093°20'1 1.4
2018-May-22 04:11N 29°43' W 093°20'1 2.0
2018-May-22 03:52N 29°44' W 093°20'1 2.0
2018-May-22 03:25N 29°44' W 093°20'1 1.5
2018-May-22 03:00N 29°44' W 093°20'1 1.6
2018-May-22 02:30N 29°43' W 093°20'1 1.9
2018-May-22 01:59N 29°42' W 093°20'2 1.4
2018-May-22 00:25N 29°44' W 093°20'0 1.1
2018-May-22 00:00N 29°44' W 093°20'6 2.0
2018-May-21 20:48N 29°38' W 093°19'7 1.8
2018-May-21 17:17N 29°44' W 093°20'1 1.8
2018-May-21 16:59N 29°43' W 093°20'1 2.0
2018-May-21 16:25N 29°42' W 093°20'2 1.3
2018-May-21 14:44N 29°45' W 093°20'1 2.3
2018-May-21 14:29N 29°44' W 093°20'2 2.2
2018-May-21 13:38N 29°42' W 093°20'0 1.8
2018-May-21 13:30N 29°42' W 093°20'3 1.7
2018-May-21 11:53N 29°45' W 093°20'1 1.9
2018-May-21 11:17N 29°43' W 093°20'1 2.0
2018-May-21 10:44N 29°42' W 093°20'5 2.2
2018-May-21 08:19N 29°37' W 093°19'7 1.7
2018-May-21 03:55N 29°44' W 093°20'0 1.0
2018-May-21 03:27N 29°44' W 093°20'0 0.0
2018-May-21 01:04N 29°44' W 093°20'1 1.9
2018-May-21 00:44N 29°44' W 093°20'0 1.2
2018-May-21 00:30N 29°44' W 093°20'1 1.8
2018-May-20 23:58N 29°43' W 093°20'1 1.8
2018-May-20 23:30N 29°42' W 093°20'5 2.0
2018-May-20 20:59N 29°37' W 093°19'7 2.0
2018-May-20 17:23N 29°45' W 093°20'1 1.9
2018-May-20 16:57N 29°44' W 093°20'1 2.1
2018-May-20 16:30N 29°43' W 093°20'2 0.9
2018-May-20 14:33N 29°45' W 093°20'0 1.2
2018-May-20 14:30N 29°44' W 093°20'2 0.9
2018-May-20 12:42N 29°43' W 093°20'1 2.2
2018-May-20 12:07N 29°44' W 093°20'0 2.2
2018-May-20 11:56N 29°45' W 093°20'1 1.9
2018-May-20 11:28N 29°44' W 093°20'1 2.1
2018-May-20 10:58N 29°43' W 093°20'1 0.3
2018-May-20 05:21N 29°44' W 093°20'0 0.3
2018-May-20 04:47N 29°44' W 093°20'2 1.7
2018-May-20 03:45N 29°42' W 093°20'2 1.2
2018-May-20 01:47N 29°44' W 093°20'1 1.7
2018-May-20 01:26N 29°44' W 093°20'1 1.5
2018-May-20 00:41N 29°43' W 093°20'1 1.5
2018-May-20 00:10N 29°42' W 093°20'1 1.3
2018-May-19 23:28N 29°43' W 093°20'6 2.1
2018-May-19 20:41N 29°37' W 093°19'7 2.0
2018-May-19 16:59N 29°44' W 093°20'1 2.0
2018-May-19 16:30N 29°44' W 093°20'1 0.4
2018-May-19 14:01N 29°44' W 093°20'0 1.2
2018-May-19 14:00N 29°44' W 093°20'1 2.2
2018-May-19 13:21N 29°43' W 093°20'6 1.1
2018-May-19 08:06N 29°37' W 093°19'1 7.9
2018-May-19 08:00N 29°37' W 093°19'1 0.7
2018-May-19 06:59N 29°36' W 093°18'3 4.2
2018-May-19 06:18N 29°39' W 093°19'1 2.3
2018-May-19 05:56N 29°39' W 093°20'3 1.0
2018-May-19 02:25N 29°43' W 093°20'2 0.8
2018-May-19 00:23N 29°45' W 093°20'7 2.2
2018-May-18 21:11N 29°37' W 093°19'1 3.8
2018-May-18 21:01N 29°37' W 093°19'4 0.8
2018-May-18 15:38N 29°41' W 093°20'0 2.4
2018-May-18 15:28N 29°41' W 093°20'0 0.0
2018-May-18 12:31N 29°41' W 093°20'1 3.0
2018-May-18 12:06N 29°42' W 093°20'1 2.3
2018-May-18 11:41N 29°43' W 093°20'1 2.3
2018-May-18 11:14N 29°44' W 093°20'1 2.1
2018-May-18 10:59N 29°44' W 093°20'1 2.3
2018-May-18 10:30N 29°43' W 093°20'1 2.6
2018-May-18 10:00N 29°42' W 093°20'1 2.7
2018-May-18 09:30N 29°41' W 093°20'1 2.8
2018-May-18 09:00N 29°39' W 093°20'1 2.8
2018-May-18 08:30N 29°38' W 093°19'1 2.9
2018-May-18 08:00N 29°37' W 093°19'2 3.0
2018-May-18 07:30N 29°36' W 093°17'2 4.3
2018-May-18 07:00N 29°34' W 093°17'1 1.9
2018-May-18 06:30N 29°35' W 093°17'1 2.3
2018-May-18 06:00N 29°35' W 093°17'1 2.4
2018-May-18 05:30N 29°36' W 093°18'1 2.4
2018-May-18 05:00N 29°37' W 093°19'1 2.5
2018-May-18 04:29N 29°38' W 093°19'1 2.3
2018-May-18 04:00N 29°40' W 093°20'1 2.3
2018-May-18 03:30N 29°41' W 093°20'1 2.1
2018-May-18 03:00N 29°42' W 093°20'1 2.2
2018-May-18 02:30N 29°43' W 093°20'1 2.1
2018-May-18 01:59N 29°44' W 093°20'0 0.4
2018-May-18 01:29N 29°44' W 093°20'1 2.0
2018-May-18 01:00N 29°43' W 093°20'1 1.9
2018-May-18 00:30N 29°42' W 093°20'1 1.9
2018-May-18 00:00N 29°41' W 093°20'1 2.1
2018-May-17 23:30N 29°40' W 093°20'1 2.3
2018-May-17 23:00N 29°39' W 093°20'1 2.3
2018-May-17 22:30N 29°38' W 093°19'1 2.0
2018-May-17 22:00N 29°37' W 093°19'1 1.8
2018-May-17 21:30N 29°36' W 093°18'1 2.0
2018-May-17 21:00N 29°36' W 093°18'1 2.1
2018-May-17 20:30N 29°35' W 093°17'1 2.1
2018-May-17 20:01N 29°34' W 093°16'1 2.3
2018-May-17 19:30N 29°33' W 093°15'0 0.2
2018-May-17 19:00N 29°33' W 093°15'1 2.1
2018-May-17 18:29N 29°34' W 093°16'1 1.9
2018-May-17 18:00N 29°35' W 093°17'0 0.5
2018-May-17 17:30N 29°35' W 093°17'0 0.7
2018-May-17 17:00N 29°35' W 093°17'0 0.7
2018-May-17 16:31N 29°35' W 093°17'1 0.9
2018-May-17 15:58N 29°35' W 093°17'1 2.1
2018-May-17 15:26N 29°36' W 093°18'1 1.9
2018-May-17 15:00N 29°36' W 093°18'2 2.4
2018-May-17 14:12N 29°34' W 093°16'1 2.0
2018-May-17 13:43N 29°33' W 093°16'1 1.9
2018-May-17 13:25N 29°33' W 093°15'1 2.2
2018-May-17 12:58N 29°32' W 093°14'2 1.0
2018-May-17 11:20N 29°33' W 093°16'1 2.1
2018-May-17 11:00N 29°34' W 093°16'0 0.7
2018-May-17 10:30N 29°34' W 093°16'1 2.1
2018-May-17 09:59N 29°33' W 093°15'1 2.6
2018-May-17 09:30N 29°32' W 093°14'0 0.9
2018-May-17 08:59N 29°32' W 093°14'1 2.2
2018-May-17 08:26N 29°32' W 093°15'1 2.3
2018-May-17 08:00N 29°33' W 093°15'1 2.2
2018-May-17 07:26N 29°34' W 093°16'1 1.1
2018-May-17 07:00N 29°34' W 093°17'1 2.0
2018-May-17 06:27N 29°35' W 093°17'1 2.2
2018-May-17 06:00N 29°36' W 093°18'1 1.0
2018-May-17 05:28N 29°36' W 093°18'1 2.3
2018-May-17 05:00N 29°35' W 093°17'1 1.1
2018-May-17 04:29N 29°34' W 093°16'1 2.0
2018-May-17 04:00N 29°35' W 093°17'0 0.3
2018-May-17 03:30N 29°35' W 093°17'1 1.9
2018-May-17 03:00N 29°34' W 093°16'1 2.0
2018-May-17 02:30N 29°34' W 093°16'1 1.8
2018-May-17 02:00N 29°33' W 093°15'1 2.0
2018-May-17 01:30N 29°32' W 093°14'1 1.6
2018-May-17 01:00N 29°32' W 093°14'1 1.8
2018-May-17 00:30N 29°32' W 093°15'1 1.9
2018-May-17 00:00N 29°33' W 093°15'1 2.0
2018-May-16 23:30N 29°34' W 093°16'1 1.0
2018-May-16 23:00N 29°33' W 093°15'1 1.9
2018-May-16 22:30N 29°33' W 093°15'1 1.9
2018-May-16 22:00N 29°32' W 093°14'1 1.7
2018-May-16 21:31N 29°31' W 093°14'1 2.1
2018-May-16 21:00N 29°32' W 093°14'1 1.4
2018-May-16 20:31N 29°33' W 093°15'1 1.6
2018-May-16 20:01N 29°33' W 093°15'1 2.2
2018-May-16 19:30N 29°34' W 093°16'0 0.9
2018-May-16 19:00N 29°34' W 093°16'1 1.9
2018-May-16 18:31N 29°33' W 093°15'1 1.9
2018-May-16 17:56N 29°32' W 093°14'1 1.9
2018-May-16 17:21N 29°31' W 093°14'1 1.3
2018-May-16 16:42N 29°32' W 093°14'2 1.8
2018-May-16 15:35N 29°34' W 093°16'0 0.4
2018-May-16 15:30N 29°34' W 093°16'1 1.1
2018-May-16 15:00N 29°33' W 093°15'1 1.6
2018-May-16 14:30N 29°33' W 093°15'1 2.0
2018-May-16 14:00N 29°32' W 093°14'0 0.6
2018-May-16 13:30N 29°32' W 093°14'1 2.1
2018-May-16 13:00N 29°32' W 093°15'1 2.0
2018-May-16 12:30N 29°33' W 093°15'1 1.9
2018-May-16 12:00N 29°34' W 093°16'1 1.5
2018-May-16 11:30N 29°33' W 093°15'1 1.8
2018-May-16 11:00N 29°33' W 093°15'1 2.1
2018-May-16 10:30N 29°32' W 093°14'0 0.9
2018-May-16 10:00N 29°31' W 093°14'1 2.0
2018-May-16 09:29N 29°32' W 093°15'1 2.0
2018-May-16 09:00N 29°33' W 093°15'1 2.2
2018-May-16 08:30N 29°34' W 093°16'1 1.7
2018-May-16 08:00N 29°33' W 093°15'1 2.3
2018-May-16 07:30N 29°32' W 093°15'0 0.4
2018-May-16 07:00N 29°32' W 093°15'1 2.0
2018-May-16 06:30N 29°33' W 093°15'1 1.8
2018-May-16 06:00N 29°34' W 093°16'1 1.5
2018-May-16 05:30N 29°33' W 093°15'1 1.7
2018-May-16 05:00N 29°33' W 093°15'1 1.8
2018-May-16 04:30N 29°32' W 093°14'1 1.6
2018-May-16 03:59N 29°31' W 093°14'2 2.0
2018-May-16 03:11N 29°33' W 093°15'0 2.0
2018-May-16 02:57N 29°33' W 093°15'1 1.7
2018-May-16 02:30N 29°34' W 093°16'0 0.4
2018-May-16 02:00N 29°34' W 093°16'1 2.0
2018-May-16 01:30N 29°33' W 093°15'1 2.0
2018-May-16 01:00N 29°32' W 093°14'1 2.2
2018-May-16 00:30N 29°31' W 093°14'1 1.6
2018-May-16 00:00N 29°32' W 093°14'1 2.3
2018-May-15 23:30N 29°33' W 093°15'1 2.2
2018-May-15 23:00N 29°34' W 093°16'0 0.2
2018-May-15 22:30N 29°34' W 093°16'1 1.9
2018-May-15 22:01N 29°33' W 093°15'0 0.7
2018-May-15 21:30N 29°33' W 093°15'1 2.5
2018-May-15 20:55N 29°34' W 093°16'1 2.5
2018-May-15 20:30N 29°35' W 093°17'0 0.7
2018-May-15 20:00N 29°35' W 093°17'2 2.2
2018-May-15 18:55N 29°37' W 093°19'2 2.0
2018-May-15 17:49N 29°39' W 093°20'1 1.7
2018-May-15 17:24N 29°39' W 093°19'1 2.1
2018-May-15 16:59N 29°38' W 093°19'1 1.6
2018-May-15 16:25N 29°37' W 093°19'1 1.6
2018-May-15 15:58N 29°36' W 093°18'1 1.9
2018-May-15 15:30N 29°36' W 093°18'1 2.3
2018-May-15 15:00N 29°35' W 093°17'1 2.1
2018-May-15 14:30N 29°34' W 093°16'0 0.9
2018-May-15 14:00N 29°34' W 093°16'0 0.3
2018-May-15 13:30N 29°34' W 093°16'1 1.6
2018-May-15 13:00N 29°33' W 093°15'1 1.8
2018-May-15 12:30N 29°32' W 093°15'1 2.2
2018-May-15 12:00N 29°31' W 093°14'0 0.8
2018-May-15 11:29N 29°32' W 093°14'1 1.9
2018-May-15 10:58N 29°33' W 093°15'1 2.1
2018-May-15 10:30N 29°33' W 093°15'1 1.3
2018-May-15 10:00N 29°34' W 093°16'1 2.0
2018-May-15 09:30N 29°33' W 093°15'1 1.8
2018-May-15 09:00N 29°32' W 093°15'1 2.0
2018-May-15 08:30N 29°33' W 093°15'1 2.2
2018-May-15 08:00N 29°34' W 093°16'1 1.8
2018-May-15 07:29N 29°33' W 093°15'0 0.9
2018-May-15 07:00N 29°33' W 093°16'1 1.5
2018-May-15 06:30N 29°34' W 093°16'0 0.2
2018-May-15 06:00N 29°34' W 093°16'1 1.9
2018-May-15 05:30N 29°33' W 093°15'1 1.9
2018-May-15 05:00N 29°32' W 093°14'1 2.0
2018-May-15 04:30N 29°31' W 093°14'1 1.1
2018-May-15 04:00N 29°32' W 093°14'1 1.7
2018-May-15 03:30N 29°32' W 093°15'1 2.1
2018-May-15 03:00N 29°33' W 093°16'1 1.4
2018-May-15 02:30N 29°34' W 093°16'1 2.0
2018-May-15 02:00N 29°33' W 093°15'1 1.7
2018-May-15 01:30N 29°32' W 093°15'1 2.1
2018-May-15 01:00N 29°32' W 093°14'0 0.4
2018-May-15 00:27N 29°32' W 093°14'1 2.1
2018-May-15 00:00N 29°33' W 093°15'1 1.9
2018-May-14 23:30N 29°33' W 093°15'1 1.9
2018-May-14 22:57N 29°34' W 093°16'1 1.5
2018-May-14 22:30N 29°34' W 093°16'0 0.3
2018-May-14 21:06N 29°33' W 093°15'0 1.3
2018-May-14 21:00N 29°33' W 093°15'1 1.8
2018-May-14 20:27N 29°32' W 093°15'0 1.0
2018-May-14 19:58N 29°33' W 093°15'0 0.7
2018-May-14 19:30N 29°33' W 093°16'1 2.0
2018-May-14 19:00N 29°32' W 093°15'1 1.7
2018-May-14 18:30N 29°32' W 093°14'2 1.2
2018-May-14 16:56N 29°33' W 093°15'1 1.9
2018-May-14 16:20N 29°34' W 093°16'0 1.3
2018-May-14 16:00N 29°34' W 093°16'1 1.9
2018-May-14 15:30N 29°33' W 093°15'1 2.0
2018-May-14 15:01N 29°32' W 093°14'1 1.8
2018-May-14 14:30N 29°31' W 093°14'1 1.4
2018-May-14 13:58N 29°32' W 093°14'1 2.1
2018-May-14 13:30N 29°33' W 093°15'1 1.7
2018-May-14 13:00N 29°33' W 093°16'0 1.0
2018-May-14 12:30N 29°34' W 093°16'1 1.8
2018-May-14 12:00N 29°33' W 093°15'1 1.6
2018-May-14 11:30N 29°32' W 093°15'0 0.3
2018-May-14 10:12N 29°32' W 093°14'1 2.1
2018-May-14 09:44N 29°33' W 093°15'0 1.9
2018-May-14 09:30N 29°33' W 093°15'1 1.3
2018-May-14 08:57N 29°34' W 093°16'1 1.7
2018-May-14 08:30N 29°33' W 093°15'1 2.2
2018-May-14 08:00N 29°32' W 093°15'1 2.3
2018-May-14 07:30N 29°31' W 093°14'0 0.7
2018-May-14 06:59N 29°32' W 093°14'3 1.6
2018-May-14 05:20N 29°34' W 093°16'1 2.2
2018-May-14 04:56N 29°33' W 093°15'1 0.4
2018-May-14 02:02N 29°34' W 093°16'0 1.6
2018-May-14 01:57N 29°34' W 093°16'1 1.5
2018-May-14 01:26N 29°33' W 093°15'1 1.7
2018-May-14 00:56N 29°33' W 093°15'2 0.7
2018-May-13 22:24N 29°34' W 093°16'  

Dump ship's entire track history